Temp: 3.9°C   Baro: 1034.2mb
  Wind: 0.9mph   Dir: SSW (196°)
  Rain: 0.0mm (0.0mm/hr)
  Solar: 0W/m2  Hum: 85%

Historic data

Bath Spa Weather Station Historical Data
Daily Summary for December 02, 2021 Units:  Both    English   Metric
Daily Weekly Monthly Yearly Custom
  High: Low: Average:
Temperature: 42.5 °F /  5.8 °C 30.2 °F /  -1 °C 35.1 °F /  1.7 °C
Dew Point: 35.2 °F /  1.8 °C 28.2 °F /  -2.1 °C 31.3 °F /  -0.4 °C
Humidity: 92% 67.4% 83%
Wind Speed: 10.4mph /  16.7km/h - 1.1mph /  1.8km/h
Wind Gust: 19mph /  30.6km/h - -
Wind- - NW
Pressure: 30.03 in /  1016.8 hPa 29.86 in /  1011.1 hPa -
Precipitation: 0.02 in /  0.51 mm    
Historical Graphs
 
 
Tabular Data for December 02, 2021
Time Temperature Dew Point Pressure Wind Wind Speed Wind Gust Humidity Rainfall Rate (Hourly) solar
00:09 35.1 °F /  1.7 °C 30.9 °F /  -0.6 °C 29.86in /  1011.1hPa Calm     82% 0.00in /  0mm 0 W/m2
00:14 34.9 °F /  1.6 °C 30.7 °F /  -0.7 °C 29.86in /  1011.1hPa Calm     82% 0.00in /  0mm 0 W/m2
00:19 34.6 °F /  1.4 °C 30.8 °F /  -0.7 °C 29.87in /  1011.4hPa Calm     83% 0.00in /  0mm 0 W/m2
00:24 34.5 °F /  1.4 °C 30.7 °F /  -0.7 °C 29.87in /  1011.4hPa Calm     83% 0.00in /  0mm 0 W/m2
00:29 34.4 °F /  1.3 °C 30.6 °F /  -0.8 °C 29.86in /  1011.1hPa Calm     83% 0.00in /  0mm 0 W/m2
00:34 34.2 °F /  1.2 °C 30.8 °F /  -0.7 °C 29.87in /  1011.4hPa Calm     84% 0.00in /  0mm 0 W/m2
00:39 34 °F /  1.1 °C 30.6 °F /  -0.8 °C 29.87in /  1011.4hPa Calm     84% 0.00in /  0mm 0 W/m2
00:44 33.9 °F /  1.1 °C 30.5 °F /  -0.8 °C 29.87in /  1011.4hPa Calm     84% 0.00in /  0mm 0 W/m2
00:49 33.6 °F /  0.9 °C 30.2 °F /  -1 °C 29.87in /  1011.4hPa Calm     84% 0.00in /  0mm 0 W/m2
00:54 33.4 °F /  0.8 °C 30.4 °F /  -0.9 °C 29.87in /  1011.4hPa Calm     85% 0.00in /  0mm 0 W/m2
00:59 33.3 °F /  0.7 °C 30.2 °F /  -1 °C 29.87in /  1011.4hPa Calm     85% 0.00in /  0mm 0 W/m2
01:04 33 °F /  0.6 °C 29.9 °F /  -1.2 °C 29.87in /  1011.4hPa Calm     85% 0.00in /  0mm 0 W/m2
01:09 32.7 °F /  0.4 °C 29.8 °F /  -1.2 °C 29.87in /  1011.4hPa Calm     85.4% 0.00in /  0mm 0 W/m2
01:14 32.7 °F /  0.4 °C 29.8 °F /  -1.2 °C 29.87in /  1011.4hPa Calm     86% 0.00in /  0mm 0 W/m2
01:19 32.7 °F /  0.4 °C 29.8 °F /  -1.2 °C 29.87in /  1011.4hPa Calm     86% 0.00in /  0mm 0 W/m2
01:24 32.5 °F /  0.3 °C 29.7 °F /  -1.3 °C 29.87in /  1011.4hPa Calm     86% 0.00in /  0mm 0 W/m2
01:29 32.5 °F /  0.3 °C 29.7 °F /  -1.3 °C 29.87in /  1011.4hPa Calm     86.4% 0.00in /  0mm 0 W/m2
01:34 32.4 °F /  0.2 °C 29.8 °F /  -1.2 °C 29.87in /  1011.4hPa Calm     87% 0.00in /  0mm 0 W/m2
01:39 32.2 °F /  0.1 °C 29.7 °F /  -1.3 °C 29.87in /  1011.4hPa Calm     87% 0.00in /  0mm 0 W/m2
01:44 32 °F /  0 °C 29.5 °F /  -1.4 °C 29.88in /  1011.7hPa Calm     87% 0.00in /  0mm 0 W/m2
01:49 31.8 °F /  -0.1 °C 29.3 °F /  -1.5 °C 29.88in /  1011.7hPa Calm     87% 0.00in /  0mm 0 W/m2
01:54 31.7 °F /  -0.2 °C 29.2 °F /  -1.6 °C 29.88in /  1011.7hPa Calm     87% 0.00in /  0mm 0 W/m2
01:59 31.6 °F /  -0.2 °C 29.3 °F /  -1.5 °C 29.88in /  1011.7hPa Calm     87.8% 0.00in /  0mm 0 W/m2
02:04 31.6 °F /  -0.2 °C 29.3 °F /  -1.5 °C 29.88in /  1011.7hPa Calm     88% 0.00in /  0mm 0 W/m2
02:09 31.5 °F /  -0.3 °C 29.1 °F /  -1.6 °C 29.88in /  1011.7hPa Calm     88% 0.00in /  0mm 0 W/m2
02:14 31.5 °F /  -0.3 °C 29.1 °F /  -1.6 °C 29.88in /  1011.7hPa Calm     88% 0.00in /  0mm 0 W/m2
02:19 31.4 °F /  -0.3 °C 29 °F /  -1.7 °C 29.88in /  1011.7hPa Calm     88% 0.00in /  0mm 0 W/m2
02:24 31.3 °F /  -0.4 °C 28.9 °F /  -1.7 °C 29.88in /  1011.7hPa Calm     88% 0.00in /  0mm 0 W/m2
02:29 31.3 °F /  -0.4 °C 28.9 °F /  -1.7 °C 29.88in /  1011.7hPa Calm     88% 0.00in /  0mm 0 W/m2
02:34 31.2 °F /  -0.4 °C 28.9 °F /  -1.7 °C 29.89in /  1012.1hPa Calm     88% 0.00in /  0mm 0 W/m2
02:39 31.1 °F /  -0.5 °C 28.9 °F /  -1.7 °C 29.89in /  1012.1hPa Calm     88% 0.00in /  0mm 0 W/m2
02:44 30.9 °F /  -0.6 °C 28.8 °F /  -1.8 °C 29.89in /  1012.1hPa Calm     88.4% 0.00in /  0mm 0 W/m2
02:49 30.7 °F /  -0.7 °C 28.8 °F /  -1.8 °C 29.89in /  1012.1hPa Calm     89% 0.00in /  0mm 0 W/m2
02:54 30.7 °F /  -0.7 °C 28.8 °F /  -1.8 °C 29.89in /  1012.1hPa Calm     89% 0.00in /  0mm 0 W/m2
02:59 30.7 °F /  -0.7 °C 28.8 °F /  -1.8 °C 29.89in /  1012.1hPa Calm     89% 0.00in /  0mm 0 W/m2
03:04 30.6 °F /  -0.8 °C 28.6 °F /  -1.9 °C 29.89in /  1012.1hPa Calm     89% 0.00in /  0mm 0 W/m2
03:09 30.4 °F /  -0.9 °C 28.4 °F /  -2 °C 29.89in /  1012.1hPa Calm     89% 0.00in /  0mm 0 W/m2
03:14 30.3 °F /  -0.9 °C 28.3 °F /  -2.1 °C 29.90in /  1012.4hPa Calm     89% 0.00in /  0mm 0 W/m2
03:19 30.2 °F /  -1 °C 28.2 °F /  -2.1 °C 29.90in /  1012.4hPa Calm     89% 0.00in /  0mm 0 W/m2
03:24 30.2 °F /  -1 °C 28.2 °F /  -2.1 °C 29.90in /  1012.4hPa Calm     89% 0.00in /  0mm 0 W/m2
03:29 30.2 °F /  -1 °C 28.2 °F /  -2.1 °C 29.90in /  1012.4hPa Calm     89% 0.00in /  0mm 0 W/m2
03:34 30.3 °F /  -0.9 °C 28.3 °F /  -2.1 °C 29.89in /  1012.1hPa Calm     89% 0.00in /  0mm 0 W/m2
03:39 30.4 °F /  -0.9 °C 28.4 °F /  -2 °C 29.89in /  1012.1hPa Calm     89% 0.00in /  0mm 0 W/m2
03:44 30.6 °F /  -0.8 °C 28.9 °F /  -1.7 °C 29.89in /  1012.1hPa Calm     90% 0.00in /  0mm 0 W/m2
03:49 30.6 °F /  -0.8 °C 28.9 °F /  -1.7 °C 29.89in /  1012.1hPa Calm     90% 0.00in /  0mm 0 W/m2
03:54 30.6 °F /  -0.8 °C 28.9 °F /  -1.7 °C 29.89in /  1012.1hPa Calm     90% 0.00in /  0mm 0 W/m2
03:59 30.6 °F /  -0.8 °C 28.9 °F /  -1.7 °C 29.89in /  1012.1hPa Calm     90% 0.00in /  0mm 0 W/m2
04:04 30.6 °F /  -0.8 °C 28.9 °F /  -1.7 °C 29.89in /  1012.1hPa Calm     90% 0.00in /  0mm 0 W/m2
04:09 30.5 °F /  -0.8 °C 28.8 °F /  -1.8 °C 29.89in /  1012.1hPa Calm     90% 0.00in /  0mm 0 W/m2
04:14 30.4 °F /  -0.9 °C 28.8 °F /  -1.8 °C 29.89in /  1012.1hPa Calm     90% 0.00in /  0mm 0 W/m2
04:19 30.4 °F /  -0.9 °C 28.8 °F /  -1.8 °C 29.89in /  1012.1hPa Calm     90% 0.00in /  0mm 0 W/m2
04:24 30.4 °F /  -0.9 °C 28.8 °F /  -1.8 °C 29.89in /  1012.1hPa Calm     90% 0.00in /  0mm 0 W/m2
04:29 30.4 °F /  -0.9 °C 28.8 °F /  -1.8 °C 29.89in /  1012.1hPa Calm     90% 0.00in /  0mm 0 W/m2
04:34 30.4 °F /  -0.9 °C 28.8 °F /  -1.8 °C 29.89in /  1012.1hPa Calm     90% 0.00in /  0mm 0 W/m2
04:39 30.3 °F /  -0.9 °C 28.7 °F /  -1.8 °C 29.88in /  1011.7hPa Calm     90% 0.00in /  0mm 0 W/m2
04:44 30.3 °F /  -0.9 °C 28.7 °F /  -1.8 °C 29.88in /  1011.7hPa Calm     90% 0.00in /  0mm 0 W/m2
04:49 30.4 °F /  -0.9 °C 28.8 °F /  -1.8 °C 29.89in /  1012.1hPa Calm     90.4% 0.00in /  0mm 0 W/m2
04:54 30.6 °F /  -0.8 °C 29.1 °F /  -1.6 °C 29.89in /  1012.1hPa Calm     91% 0.00in /  0mm 0 W/m2
04:59 30.6 °F /  -0.8 °C 29.1 °F /  -1.6 °C 29.89in /  1012.1hPa Calm     91% 0.00in /  0mm 0 W/m2
05:04 30.6 °F /  -0.8 °C 29.1 °F /  -1.6 °C 29.89in /  1012.1hPa Calm     91% 0.00in /  0mm 0 W/m2
05:09 30.6 °F /  -0.8 °C 29.2 °F /  -1.6 °C 29.89in /  1012.1hPa Calm     91% 0.00in /  0mm 0 W/m2
05:14 30.7 °F /  -0.7 °C 29.3 °F /  -1.5 °C 29.89in /  1012.1hPa Calm     91% 0.00in /  0mm 0 W/m2
05:19 31 °F /  -0.6 °C 29.6 °F /  -1.3 °C 29.89in /  1012.1hPa Calm     91% 0.00in /  0mm 0 W/m2
05:24 31.4 °F /  -0.3 °C 29.9 °F /  -1.2 °C 29.89in /  1012.1hPa Calm     91% 0.00in /  0mm 0 W/m2
05:29 31.5 °F /  -0.3 °C 30 °F /  -1.1 °C 29.89in /  1012.1hPa Calm     91% 0.00in /  0mm 0 W/m2
05:34 31.6 °F /  -0.2 °C 30.1 °F /  -1.1 °C 29.89in /  1012.1hPa Calm     91% 0.00in /  0mm 0 W/m2
05:39 31.6 °F /  -0.2 °C 30.2 °F /  -1 °C 29.89in /  1012.1hPa Calm     91% 0.00in /  0mm 0 W/m2
05:44 31.8 °F /  -0.1 °C 30.4 °F /  -0.9 °C 29.89in /  1012.1hPa Calm     91% 0.00in /  0mm 0 W/m2
05:49 31.8 °F /  -0.1 °C 30.4 °F /  -0.9 °C 29.89in /  1012.1hPa Calm     91% 0.00in /  0mm 0 W/m2
05:54 31.8 °F /  -0.1 °C 30.4 °F /  -0.9 °C 29.89in /  1012.1hPa Calm     91% 0.00in /  0mm 0 W/m2
05:59 32 °F /  0 °C 30.6 °F /  -0.8 °C 29.89in /  1012.1hPa Calm     91% 0.00in /  0mm 0 W/m2
06:04 32 °F /  0 °C 30.6 °F /  -0.8 °C 29.89in /  1012.1hPa Calm     91% 0.00in /  0mm 0 W/m2
06:09 32 °F /  0 °C 30.6 °F /  -0.8 °C 29.90in /  1012.4hPa Calm     91% 0.00in /  0mm 0 W/m2
06:14 32 °F /  0 °C 30.6 °F /  -0.8 °C 29.90in /  1012.4hPa Calm     91% 0.00in /  0mm 0 W/m2
06:19 32.1 °F /  0.1 °C 30.6 °F /  -0.8 °C 29.90in /  1012.4hPa Calm     91% 0.00in /  0mm 0 W/m2
06:24 32.2 °F /  0.1 °C 30.8 °F /  -0.7 °C 29.90in /  1012.4hPa Calm     91.2% 0.00in /  0mm 0 W/m2
06:29 32.4 °F /  0.2 °C 31.1 °F /  -0.5 °C 29.90in /  1012.4hPa Calm     91.8% 0.00in /  0mm 0 W/m2
06:34 32.5 °F /  0.3 °C 31.3 °F /  -0.4 °C 29.90in /  1012.4hPa Calm     92% 0.00in /  0mm 0 W/m2
06:39 32.5 °F /  0.3 °C 31.3 °F /  -0.4 °C 29.90in /  1012.4hPa Calm     92% 0.00in /  0mm 0 W/m2
06:44 32.5 °F /  0.3 °C 31.3 °F /  -0.4 °C 29.90in /  1012.4hPa Calm     91.8% 0.00in /  0mm 0 W/m2
06:49 32.5 °F /  0.3 °C 31.3 °F /  -0.4 °C 29.90in /  1012.4hPa Calm     92% 0.00in /  0mm 0 W/m2
06:54 32.7 °F /  0.4 °C 31.5 °F /  -0.3 °C 29.91in /  1012.8hPa Calm     92% 0.00in /  0mm 0 W/m2
06:59 32.7 °F /  0.4 °C 31.5 °F /  -0.3 °C 29.91in /  1012.8hPa Calm     92% 0.00in /  0mm 0 W/m2
07:04 32.9 °F /  0.5 °C 31.6 °F /  -0.2 °C 29.91in /  1012.8hPa Calm     92% 0.00in /  0mm 0 W/m2
07:09 32.8 °F /  0.4 °C 31.6 °F /  -0.2 °C 29.91in /  1012.8hPa Calm     92% 0.00in /  0mm 0 W/m2
07:14 32.9 °F /  0.5 °C 31.6 °F /  -0.2 °C 29.91in /  1012.8hPa Calm     92% 0.00in /  0mm 0 W/m2
07:19 32.9 °F /  0.5 °C 31.6 °F /  -0.2 °C 29.91in /  1012.8hPa Calm     92% 0.00in /  0mm 0 W/m2
07:24 33.1 °F /  0.6 °C 31.8 °F /  -0.1 °C 29.91in /  1012.8hPa Calm     92% 0.00in /  0mm 0 W/m2
07:29 33.1 °F /  0.6 °C 31.8 °F /  -0.1 °C 29.91in /  1012.8hPa Calm     92% 0.00in /  0mm 0 W/m2
07:34 33.1 °F /  0.6 °C 31.8 °F /  -0.1 °C 29.91in /  1012.8hPa Calm     92% 0.00in /  0mm 0 W/m2
07:39 32.9 °F /  0.5 °C 31.6 °F /  -0.2 °C 29.91in /  1012.8hPa Calm     92% 0.00in /  0mm 0 W/m2
07:44 32.8 °F /  0.4 °C 31.6 °F /  -0.2 °C 29.91in /  1012.8hPa Calm     92% 0.00in /  0mm 0 W/m2
07:49 32.9 °F /  0.5 °C 31.6 °F /  -0.2 °C 29.91in /  1012.8hPa Calm     92% 0.00in /  0mm 0 W/m2
07:54 33 °F /  0.6 °C 31.7 °F /  -0.2 °C 29.92in /  1013.1hPa Calm     92% 0.00in /  0mm 0 W/m2
07:59 33.1 °F /  0.6 °C 31.8 °F /  -0.1 °C 29.92in /  1013.1hPa Calm     92% 0.00in /  0mm 5 W/m2
08:04 33.1 °F /  0.6 °C 31.8 °F /  -0.1 °C 29.93in /  1013.4hPa Calm     92% 0.00in /  0mm 7 W/m2
08:09 33.1 °F /  0.6 °C 31.8 °F /  -0.1 °C 29.93in /  1013.4hPa Calm     92% 0.00in /  0mm 7 W/m2
08:14 33.1 °F /  0.6 °C 31.8 °F /  -0.1 °C 29.93in /  1013.4hPa Calm     92% 0.00in /  0mm 9 W/m2
08:19 33.1 °F /  0.6 °C 31.8 °F /  -0.1 °C 29.93in /  1013.4hPa Calm     92% 0.00in /  0mm 11 W/m2
08:24 33.1 °F /  0.6 °C 31.8 °F /  -0.1 °C 29.93in /  1013.4hPa Calm     92% 0.00in /  0mm 12 W/m2
08:29 33.1 °F /  0.6 °C 31.8 °F /  -0.1 °C 29.93in /  1013.4hPa Calm     92% 0.00in /  0mm 14 W/m2
08:34 33.2 °F /  0.7 °C 31.9 °F /  -0.1 °C 29.93in /  1013.4hPa Calm     92% 0.00in /  0mm 16 W/m2
08:39 33.5 °F /  0.8 °C 32.3 °F /  0.2 °C 29.93in /  1013.4hPa Calm     92% 0.00in /  0mm 18 W/m2
08:44 33.8 °F /  1 °C 32.5 °F /  0.3 °C 29.94in /  1013.8hPa Calm     92% 0.00in /  0mm 19 W/m2
08:49 34.1 °F /  1.2 °C 32.9 °F /  0.5 °C 29.94in /  1013.8hPa Calm     92% 0.00in /  0mm 19 W/m2
08:54 34.5 °F /  1.4 °C 33.2 °F /  0.7 °C 29.94in /  1013.8hPa Calm     92% 0.00in /  0mm 19 W/m2
08:59 35 °F /  1.7 °C 33.7 °F /  0.9 °C 29.95in /  1014.1hPa Calm     92% 0.00in /  0mm 21 W/m2
09:04 35.2 °F /  1.8 °C 34 °F /  1.1 °C 29.95in /  1014.1hPa Calm     92% 0.00in /  0mm 21 W/m2
09:09 35.9 °F /  2.2 °C 34.5 °F /  1.4 °C 29.95in /  1014.1hPa Calm     91.6% 0.00in /  0mm 23 W/m2
09:14 36.7 °F /  2.6 °C 35.2 °F /  1.8 °C 29.95in /  1014.1hPa Calm   1mph /  1.6km/h 90.8% 0.00in /  0mm 23 W/m2
09:19 37.2 °F /  2.9 °C 35.2 °F /  1.8 °C 29.95in /  1014.1hPa NNW 3mph /  4.8km/h 7mph /  11.3km/h 89% 0.00in /  0mm 23 W/m2
09:24 37.6 °F /  3.1 °C 34.9 °F /  1.6 °C 29.95in /  1014.1hPa NNW 2.6mph /  4.2km/h 8mph /  12.9km/h 86.8% 0.00in /  0mm 25 W/m2
09:29 37.9 °F /  3.3 °C 34.7 °F /  1.5 °C 29.95in /  1014.1hPa NW 1.3mph /  2.1km/h 7mph /  11.3km/h 85.2% 0.00in /  0mm 28 W/m2
09:34 37.9 °F /  3.3 °C 34.3 °F /  1.3 °C 29.95in /  1014.1hPa NW 3.8mph /  6.1km/h 10mph /  16.1km/h 84% 0.00in /  0mm 33 W/m2
09:39 38.2 °F /  3.4 °C 34.5 °F /  1.4 °C 29.96in /  1014.4hPa NW 2.7mph /  4.3km/h 10mph /  16.1km/h 83.2% 0.00in /  0mm 40 W/m2
09:44 38.5 °F /  3.6 °C 34.6 °F /  1.4 °C 29.96in /  1014.4hPa NNW 2.4mph /  3.9km/h 12mph /  19.3km/h 82.8% 0.00in /  0mm 49 W/m2
09:49 38.5 °F /  3.6 °C 34.3 °F /  1.3 °C 29.96in /  1014.4hPa NNW 5.4mph /  8.7km/h 12mph /  19.3km/h 82% 0.00in /  0mm 58 W/m2
09:54 38.7 °F /  3.7 °C 34.2 °F /  1.2 °C 29.96in /  1014.4hPa North 5.6mph /  9km/h 11mph /  17.7km/h 81% 0.00in /  0mm 65 W/m2
09:59 38.7 °F /  3.7 °C 33.8 °F /  1 °C 29.97in /  1014.8hPa NNW 9.5mph /  15.3km/h 12mph /  19.3km/h 79.6% 0.00in /  0mm 74 W/m2
10:04 38.8 °F /  3.8 °C 33.7 °F /  0.9 °C 29.97in /  1014.8hPa NNW 6.2mph /  10km/h 13mph /  20.9km/h 79% 0.00in /  0mm 86 W/m2
10:09 38.8 °F /  3.8 °C 33.4 °F /  0.8 °C 29.97in /  1014.8hPa NNW 6mph /  9.7km/h 13mph /  20.9km/h 78% 0.00in /  0mm 97 W/m2
10:14 38.8 °F /  3.8 °C 33.4 °F /  0.8 °C 29.97in /  1014.8hPa NW 6.4mph /  10.3km/h 13mph /  20.9km/h 78% 0.00in /  0mm 104 W/m2
10:19 38.9 °F /  3.8 °C 33.5 °F /  0.8 °C 29.97in /  1014.8hPa NW 5.1mph /  8.2km/h 11mph /  17.7km/h 78% 0.00in /  0mm 113 W/m2
10:24 39 °F /  3.9 °C 33.6 °F /  0.9 °C 29.97in /  1014.8hPa NW 4.5mph /  7.2km/h 12mph /  19.3km/h 78% 0.00in /  0mm 123 W/m2
10:29 39.1 °F /  3.9 °C 33.4 °F /  0.8 °C 29.97in /  1014.8hPa NW 3.7mph /  6km/h 11mph /  17.7km/h 77% 0.00in /  0mm 130 W/m2
10:34 39.4 °F /  4.1 °C 33.4 °F /  0.8 °C 29.97in /  1014.8hPa NW 6.6mph /  10.6km/h 13mph /  20.9km/h 76.6% 0.00in /  0mm 141 W/m2
10:39 39.3 °F /  4.1 °C 33.1 °F /  0.6 °C 29.97in /  1014.8hPa NNW 4.2mph /  6.8km/h 13mph /  20.9km/h 75.4% 0.00in /  0mm 148 W/m2
10:44 39.5 °F /  4.2 °C 33.3 °F /  0.7 °C 29.97in /  1014.8hPa North 4.6mph /  7.4km/h 11mph /  17.7km/h 75.8% 0.00in /  0mm 155 W/m2
10:49 39.7 °F /  4.3 °C 33.4 °F /  0.8 °C 29.97in /  1014.8hPa NW 5.4mph /  8.7km/h 12mph /  19.3km/h 75.4% 0.00in /  0mm 162 W/m2
10:54 39.7 °F /  4.3 °C 33.3 °F /  0.7 °C 29.97in /  1014.8hPa NNW 5.4mph /  8.7km/h 9mph /  14.5km/h 75% 0.00in /  0mm 169 W/m2
10:59 39.7 °F /  4.3 °C 33.3 °F /  0.7 °C 29.97in /  1014.8hPa NNW 4.6mph /  7.4km/h 12mph /  19.3km/h 75% 0.00in /  0mm 174 W/m2
11:04 39.8 °F /  4.3 °C 33.3 °F /  0.7 °C 29.97in /  1014.8hPa NW 5mph /  8km/h 10mph /  16.1km/h 74.8% 0.00in /  0mm 179 W/m2
11:09 39.9 °F /  4.4 °C 33.3 °F /  0.7 °C 29.97in /  1014.8hPa North 6.2mph /  10km/h 14mph /  22.5km/h 74.4% 0.00in /  0mm 183 W/m2
11:14 40.1 °F /  4.5 °C 33.5 °F /  0.8 °C 29.97in /  1014.8hPa NNW 3.3mph /  5.3km/h 9mph /  14.5km/h 74.6% 0.00in /  0mm 190 W/m2
11:19 40.6 °F /  4.8 °C 33.8 °F /  1 °C 29.97in /  1014.8hPa NNW 1.8mph /  2.9km/h 7mph /  11.3km/h 74.2% 0.00in /  0mm 192 W/m2
11:24 41.4 °F /  5.2 °C 34.2 °F /  1.2 °C 29.97in /  1014.8hPa NNW 2.8mph /  4.5km/h 10mph /  16.1km/h 72.8% 0.00in /  0mm 199 W/m2
11:29 41 °F /  5 °C 33.6 °F /  0.9 °C 29.97in /  1014.8hPa North 4.5mph /  7.2km/h 11mph /  17.7km/h 72% 0.00in /  0mm 202 W/m2
11:34 40.7 °F /  4.8 °C 33 °F /  0.6 °C 29.97in /  1014.8hPa North 10.4mph /  16.7km/h 15mph /  24.1km/h 71.2% 0.00in /  0mm 209 W/m2
11:39 40.3 °F /  4.6 °C 32.7 °F /  0.4 °C 29.97in /  1014.8hPa NNW 7.8mph /  12.6km/h 15mph /  24.1km/h 71.6% 0.00in /  0mm 209 W/m2
11:44 40.5 °F /  4.7 °C 33.1 °F /  0.6 °C 29.97in /  1014.8hPa NNW 6.7mph /  10.8km/h 15mph /  24.1km/h 72% 0.00in /  0mm 211 W/m2
11:49 40.6 °F /  4.8 °C 33 °F /  0.6 °C 29.97in /  1014.8hPa North 5.2mph /  8.4km/h 10mph /  16.1km/h 71.6% 0.00in /  0mm 211 W/m2
11:54 41.3 °F /  5.2 °C 33.7 °F /  0.9 °C 29.97in /  1014.8hPa NNW 5.4mph /  8.7km/h 10mph /  16.1km/h 71.6% 0.00in /  0mm 213 W/m2
11:59 40.8 °F /  4.9 °C 32.8 °F /  0.4 °C 29.96in /  1014.4hPa NNW 6.7mph /  10.8km/h 13mph /  20.9km/h 70.4% 0.00in /  0mm 216 W/m2
12:04 40.6 °F /  4.8 °C 32.6 °F /  0.3 °C 29.96in /  1014.4hPa North 8.2mph /  13.2km/h 19mph /  30.6km/h 70.2% 0.01in /  0.25mm 221 W/m2
12:09 40.6 °F /  4.8 °C 32.6 °F /  0.3 °C 29.97in /  1014.8hPa North 7.6mph /  12.2km/h 13mph /  20.9km/h 70.2% 0.01in /  0.25mm 218 W/m2
12:14 41 °F /  5 °C 32.9 °F /  0.5 °C 29.97in /  1014.8hPa NW 5.3mph /  8.5km/h 15mph /  24.1km/h 70.2% 0.01in /  0.25mm 218 W/m2
12:19 41.1 °F /  5.1 °C 33 °F /  0.6 °C 29.97in /  1014.8hPa NW 2.8mph /  4.5km/h 9mph /  14.5km/h 70% 0.01in /  0.25mm 220 W/m2
12:24 41.4 °F /  5.2 °C 33.2 °F /  0.7 °C 29.97in /  1014.8hPa North 4.4mph /  7.1km/h 14mph /  22.5km/h 69.8% 0.01in /  0.25mm 223 W/m2
12:29 41.6 °F /  5.3 °C 33.2 °F /  0.7 °C 29.97in /  1014.8hPa NW 5.1mph /  8.2km/h 11mph /  17.7km/h 69.4% 0.01in /  0.25mm 229 W/m2
12:34 41.7 °F /  5.4 °C 33.3 °F /  0.7 °C 29.98in /  1015.1hPa NNW 3.7mph /  6km/h 9mph /  14.5km/h 69.4% 0.01in /  0.25mm 229 W/m2
12:39 41.5 °F /  5.3 °C 32.9 °F /  0.5 °C 29.98in /  1015.1hPa North 2.3mph /  3.7km/h 11mph /  17.7km/h 68.6% 0.01in /  0.25mm 223 W/m2
12:44 41.6 °F /  5.3 °C 32.9 °F /  0.5 °C 29.98in /  1015.1hPa Calm   7mph /  11.3km/h 68.6% 0.01in /  0.25mm 214 W/m2
12:49 41.5 °F /  5.3 °C 32.6 °F /  0.3 °C 29.97in /  1014.8hPa NNW 4.2mph /  6.8km/h 11mph /  17.7km/h 68% 0.01in /  0.25mm 213 W/m2
12:54 41.3 °F /  5.2 °C 32.6 °F /  0.3 °C 29.98in /  1015.1hPa NNW 6.2mph /  10km/h 11mph /  17.7km/h 68.4% 0.01in /  0.25mm 214 W/m2
12:59 41.2 °F /  5.1 °C 32.5 °F /  0.3 °C 29.98in /  1015.1hPa NW 3.5mph /  5.6km/h 11mph /  17.7km/h 68.2% 0.01in /  0.25mm 209 W/m2
13:04 41.5 °F /  5.3 °C 32.7 °F /  0.4 °C 29.98in /  1015.1hPa Calm   7mph /  11.3km/h 68.2% 0.01in /  0.25mm 204 W/m2
13:09 41.6 °F /  5.3 °C 32.7 °F /  0.4 °C 29.98in /  1015.1hPa NW 0.4mph /  0.6km/h 7mph /  11.3km/h 68.2% 0.00in /  0mm 200 W/m2
13:14 41.4 °F /  5.2 °C 32.7 °F /  0.4 °C 29.98in /  1015.1hPa NNW 3.7mph /  6km/h 11mph /  17.7km/h 68.4% 0.00in /  0mm 199 W/m2
13:19 41.6 °F /  5.3 °C 32.9 °F /  0.5 °C 29.98in /  1015.1hPa NNW 4.8mph /  7.7km/h 10mph /  16.1km/h 68.6% 0.00in /  0mm 193 W/m2
13:24 41.4 °F /  5.2 °C 32.9 °F /  0.5 °C 29.98in /  1015.1hPa NW 6.7mph /  10.8km/h 11mph /  17.7km/h 68.8% 0.00in /  0mm 190 W/m2
13:29 41.4 °F /  5.2 °C 32.7 °F /  0.4 °C 29.98in /  1015.1hPa NW 9.8mph /  15.8km/h 14mph /  22.5km/h 68.4% 0.00in /  0mm 185 W/m2
13:34 41.4 °F /  5.2 °C 32.8 °F /  0.4 °C 29.98in /  1015.1hPa NW 5.3mph /  8.5km/h 14mph /  22.5km/h 68.8% 0.00in /  0mm 181 W/m2
13:39 41.5 °F /  5.3 °C 33.2 °F /  0.7 °C 29.98in /  1015.1hPa NW 3.6mph /  5.8km/h 9mph /  14.5km/h 69.2% 0.00in /  0mm 178 W/m2
13:44 41.7 °F /  5.4 °C 32.9 °F /  0.5 °C 29.98in /  1015.1hPa NNW 4.6mph /  7.4km/h 13mph /  20.9km/h 68.4% 0.00in /  0mm 186 W/m2
13:49 42.1 °F /  5.6 °C 33.3 °F /  0.7 °C 29.98in /  1015.1hPa North 4.5mph /  7.2km/h 12mph /  19.3km/h 68.6% 0.00in /  0mm 207 W/m2
13:54 42.5 °F /  5.8 °C 33.7 °F /  0.9 °C 29.98in /  1015.1hPa NNW 3.4mph /  5.5km/h 10mph /  16.1km/h 68.4% 0.00in /  0mm 209 W/m2
13:59 42.2 °F /  5.7 °C 33 °F /  0.6 °C 29.98in /  1015.1hPa NNW 4.3mph /  6.9km/h 12mph /  19.3km/h 67.4% 0.00in /  0mm 220 W/m2
14:04 42 °F /  5.6 °C 33 °F /  0.6 °C 29.98in /  1015.1hPa North 2.1mph /  3.4km/h 7mph /  11.3km/h 68% 0.00in /  0mm 213 W/m2
14:09 42 °F /  5.6 °C 33 °F /  0.6 °C 29.98in /  1015.1hPa NNW 3mph /  4.8km/h 7mph /  11.3km/h 68.3% 0.00in /  0mm 204 W/m2
14:14 41.9 °F /  5.5 °C 32.9 °F /  0.5 °C 29.98in /  1015.1hPa NNW 1.4mph /  2.3km/h 8mph /  12.9km/h 68% 0.00in /  0mm 139 W/m2
14:19 41.7 °F /  5.4 °C 33.1 °F /  0.6 °C 29.99in /  1015.5hPa North 0.2mph /  0.3km/h 3mph /  4.8km/h 69% 0.00in /  0mm 113 W/m2
14:24 41.7 °F /  5.4 °C 33.1 °F /  0.6 °C 29.99in /  1015.5hPa NNW 4.1mph /  6.6km/h 8mph /  12.9km/h 69% 0.00in /  0mm 93 W/m2
14:29 41.4 °F /  5.2 °C 33 °F /  0.6 °C 30.00in /  1015.8hPa NNW 4mph /  6.4km/h 8mph /  12.9km/h 69.2% 0.00in /  0mm 93 W/m2
14:34 41.4 °F /  5.2 °C 33.3 °F /  0.7 °C 30.00in /  1015.8hPa NNW 2.1mph /  3.4km/h 7mph /  11.3km/h 70% 0.00in /  0mm 91 W/m2
14:39 41.5 °F /  5.3 °C 33.5 °F /  0.8 °C 30.00in /  1015.8hPa NNW 1.4mph /  2.3km/h 7mph /  11.3km/h 70.4% 0.00in /  0mm 139 W/m2
14:44 42.2 °F /  5.7 °C 34.1 °F /  1.2 °C 30.00in /  1015.8hPa Calm   3mph /  4.8km/h 70.6% 0.00in /  0mm 139 W/m2
14:49 42.3 °F /  5.7 °C 33.7 °F /  0.9 °C 29.99in /  1015.5hPa NNW 0.9mph /  1.4km/h 6mph /  9.7km/h 69% 0.00in /  0mm 123 W/m2
14:54 41.7 °F /  5.4 °C 33.3 °F /  0.7 °C 29.98in /  1015.1hPa NW 1.8mph /  2.9km/h 8mph /  12.9km/h 69.4% 0.00in /  0mm 105 W/m2
14:59 41.5 °F /  5.3 °C 33.3 °F /  0.7 °C 29.99in /  1015.5hPa NNW 1.4mph /  2.3km/h 8mph /  12.9km/h 69.8% 0.00in /  0mm 83 W/m2
15:04 41.4 °F /  5.2 °C 33.3 °F /  0.7 °C 29.99in /  1015.5hPa NW 4.6mph /  7.4km/h 8mph /  12.9km/h 70% 0.00in /  0mm 53 W/m2
15:09 41.2 °F /  5.1 °C 33.1 °F /  0.6 °C 29.99in /  1015.5hPa NW 3.2mph /  5.1km/h 7mph /  11.3km/h 70% 0.00in /  0mm 40 W/m2
15:14 41.2 °F /  5.1 °C 33.1 °F /  0.6 °C 30.00in /  1015.8hPa NNE 1.2mph /  1.9km/h 9mph /  14.5km/h 70% 0.00in /  0mm 42 W/m2
15:19 41 °F /  5 °C 33.3 °F /  0.7 °C 29.99in /  1015.5hPa NNE 0.4mph /  0.6km/h 3mph /  4.8km/h 71% 0.00in /  0mm 35 W/m2
15:24 40.8 °F /  4.9 °C 33.1 °F /  0.6 °C 29.99in /  1015.5hPa North 1mph /  1.6km/h 10mph /  16.1km/h 71% 0.00in /  0mm 33 W/m2
15:29 40.6 °F /  4.8 °C 32.7 °F /  0.4 °C 29.99in /  1015.5hPa NNW 4.4mph /  7.1km/h 11mph /  17.7km/h 70.6% 0.00in /  0mm 33 W/m2
15:34 40.6 °F /  4.8 °C 32.8 °F /  0.4 °C 30.00in /  1015.8hPa NNW 0.6mph /  1km/h 6mph /  9.7km/h 71% 0.00in /  0mm 33 W/m2
15:39 40.5 °F /  4.7 °C 32.7 °F /  0.4 °C 30.00in /  1015.8hPa NNW 1.8mph /  2.9km/h 7mph /  11.3km/h 71% 0.00in /  0mm 25 W/m2
15:44 40.3 °F /  4.6 °C 32.5 °F /  0.3 °C 30.00in /  1015.8hPa Calm   3mph /  4.8km/h 71% 0.00in /  0mm 18 W/m2
15:49 40.1 °F /  4.5 °C 32.5 °F /  0.3 °C 30.00in /  1015.8hPa Calm     71.2% 0.00in /  0mm 16 W/m2
15:54 39.9 °F /  4.4 °C 32.4 °F /  0.2 °C 30.00in /  1015.8hPa Calm     71.8% 0.00in /  0mm 12 W/m2
15:59 39.8 °F /  4.3 °C 32.4 °F /  0.2 °C 30.01in /  1016.1hPa Calm     72% 0.00in /  0mm 7 W/m2
16:04 39.7 °F /  4.3 °C 32.5 °F /  0.3 °C 30.01in /  1016.1hPa Calm     72.2% 0.00in /  0mm 5 W/m2
16:08 39.6 °F /  4.2 °C 32.5 °F /  0.3 °C 30.01in /  1016.1hPa Calm     73% 0.00in /  0mm 0 W/m2
16:14 39.5 °F /  4.2 °C 32.8 °F /  0.4 °C 30.01in /  1016.1hPa Calm     74% 0.00in /  0mm 0 W/m2
16:19 39.2 °F /  4 °C 32.7 °F /  0.4 °C 30.01in /  1016.1hPa Calm     74.6% 0.00in /  0mm 0 W/m2
16:24 38.7 °F /  3.7 °C 32.4 °F /  0.2 °C 30.01in /  1016.1hPa Calm     75% 0.00in /  0mm 0 W/m2
16:29 38.3 °F /  3.5 °C 32.3 °F /  0.2 °C 30.01in /  1016.1hPa Calm     75.8% 0.00in /  0mm 0 W/m2
16:34 37.8 °F /  3.2 °C 31.8 °F /  -0.1 °C 30.01in /  1016.1hPa Calm     76% 0.00in /  0mm 0 W/m2
16:39 37.3 °F /  2.9 °C 31.6 °F /  -0.2 °C 30.01in /  1016.1hPa Calm     77% 0.00in /  0mm 0 W/m2
16:44 36.9 °F /  2.7 °C 31.4 °F /  -0.3 °C 30.00in /  1015.8hPa Calm     77.5% 0.00in /  0mm 0 W/m2
16:49 36.6 °F /  2.6 °C 31.2 °F /  -0.4 °C 30.01in /  1016.1hPa Calm     78% 0.00in /  0mm 0 W/m2
16:54 36.3 °F /  2.4 °C 31.1 °F /  -0.5 °C 30.01in /  1016.1hPa Calm     78.6% 0.00in /  0mm 0 W/m2
16:59 35.8 °F /  2.1 °C 30.8 °F /  -0.7 °C 30.01in /  1016.1hPa Calm     79% 0.00in /  0mm 0 W/m2
17:04 35.3 °F /  1.8 °C 30.3 °F /  -0.9 °C 30.01in /  1016.1hPa Calm     79% 0.00in /  0mm 0 W/m2
17:09 35.2 °F /  1.8 °C 30.6 °F /  -0.8 °C 30.01in /  1016.1hPa Calm     80% 0.00in /  0mm 0 W/m2
17:14 35.1 °F /  1.7 °C 30.5 °F /  -0.8 °C 30.01in /  1016.1hPa Calm     80% 0.00in /  0mm 0 W/m2
17:19 35.1 °F /  1.7 °C 30.5 °F /  -0.8 °C 30.01in /  1016.1hPa Calm     80.4% 0.00in /  0mm 0 W/m2
17:24 34.6 °F /  1.4 °C 30.1 °F /  -1.1 °C 30.01in /  1016.1hPa Calm     80.6% 0.00in /  0mm 0 W/m2
17:29 34.5 °F /  1.4 °C 30.2 °F /  -1 °C 30.01in /  1016.1hPa Calm     81% 0.00in /  0mm 0 W/m2
17:34 34.3 °F /  1.3 °C 30.3 °F /  -0.9 °C 30.01in /  1016.1hPa Calm     81.8% 0.00in /  0mm 0 W/m2
17:39 34.3 °F /  1.3 °C 30.4 °F /  -0.9 °C 30.01in /  1016.1hPa Calm     82% 0.00in /  0mm 0 W/m2
17:44 34.3 °F /  1.3 °C 30.5 °F /  -0.8 °C 30.01in /  1016.1hPa Calm     83% 0.00in /  0mm 0 W/m2
17:49 34.2 °F /  1.2 °C 30.5 °F /  -0.8 °C 30.02in /  1016.5hPa Calm     83% 0.00in /  0mm 0 W/m2
17:54 34.2 °F /  1.2 °C 30.4 °F /  -0.9 °C 30.03in /  1016.8hPa Calm     83% 0.00in /  0mm 0 W/m2
17:59 34.2 °F /  1.2 °C 30.6 °F /  -0.8 °C 30.02in /  1016.5hPa Calm     83.8% 0.00in /  0mm 0 W/m2
18:04 34.2 °F /  1.2 °C 30.7 °F /  -0.7 °C 30.02in /  1016.5hPa Calm     84% 0.00in /  0mm 0 W/m2
18:09 34 °F /  1.1 °C 30.6 °F /  -0.8 °C 30.03in /  1016.8hPa Calm     84% 0.00in /  0mm 0 W/m2
18:14 33.8 °F /  1 °C 30.4 °F /  -0.9 °C 30.02in /  1016.5hPa Calm     84% 0.00in /  0mm 0 W/m2
18:19 33.4 °F /  0.8 °C 30.3 °F /  -0.9 °C 30.02in /  1016.5hPa Calm     84.6% 0.00in /  0mm 0 W/m2
18:24 33.3 °F /  0.7 °C 30.2 °F /  -1 °C 30.02in /  1016.5hPa Calm     85% 0.00in /  0mm 0 W/m2
18:29 33.3 °F /  0.7 °C 30.2 °F /  -1 °C 30.02in /  1016.5hPa Calm     85% 0.00in /  0mm 0 W/m2
18:34 33.2 °F /  0.7 °C 30.1 °F /  -1.1 °C 30.02in /  1016.5hPa Calm     85% 0.00in /  0mm 0 W/m2
18:39 33.1 °F /  0.6 °C 30.2 °F /  -1 °C 30.02in /  1016.5hPa Calm     85.8% 0.00in /  0mm 0 W/m2
18:44 32.8 °F /  0.4 °C 29.9 °F /  -1.2 °C 30.02in /  1016.5hPa Calm     86% 0.00in /  0mm 0 W/m2
18:49 32.7 °F /  0.4 °C 29.8 °F /  -1.2 °C 30.03in /  1016.8hPa Calm     86% 0.00in /  0mm 0 W/m2
18:54 32.6 °F /  0.3 °C 29.8 °F /  -1.2 °C 30.03in /  1016.8hPa Calm     86% 0.00in /  0mm 0 W/m2
18:59 32.5 °F /  0.3 °C 29.6 °F /  -1.3 °C 30.03in /  1016.8hPa Calm     86% 0.00in /  0mm 0 W/m2
19:04 32.5 °F /  0.3 °C 29.7 °F /  -1.3 °C 30.03in /  1016.8hPa Calm     86% 0.00in /  0mm 0 W/m2
19:09 32.4 °F /  0.2 °C 29.6 °F /  -1.3 °C 30.03in /  1016.8hPa Calm     86.4% 0.00in /  0mm 0 W/m2
19:14 32.3 °F /  0.2 °C 29.8 °F /  -1.2 °C 30.02in /  1016.5hPa Calm     87% 0.00in /  0mm 0 W/m2
19:19 32.4 °F /  0.2 °C 29.8 °F /  -1.2 °C 30.02in /  1016.5hPa Calm     87% 0.00in /  0mm 0 W/m2
19:24 32.2 °F /  0.1 °C 29.7 °F /  -1.3 °C 30.02in /  1016.5hPa Calm     87% 0.00in /  0mm 0 W/m2
19:29 32.2 °F /  0.1 °C 29.7 °F /  -1.3 °C 30.01in /  1016.1hPa Calm     87% 0.00in /  0mm 0 W/m2
19:34 32 °F /  0 °C 29.5 °F /  -1.4 °C 30.01in /  1016.1hPa Calm     87% 0.00in /  0mm 0 W/m2
19:39 31.9 °F /  -0.1 °C 29.4 °F /  -1.4 °C 30.00in /  1015.8hPa Calm     87% 0.00in /  0mm 0 W/m2
19:44 32 °F /  0 °C 29.5 °F /  -1.4 °C 29.99in /  1015.5hPa Calm     87% 0.00in /  0mm 0 W/m2
19:49 32.2 °F /  0.1 °C 29.8 °F /  -1.2 °C 29.99in /  1015.5hPa Calm     87.5% 0.00in /  0mm 0 W/m2
19:54 32.1 °F /  0.1 °C 29.7 °F /  -1.3 °C 29.99in /  1015.5hPa Calm     87.8% 0.00in /  0mm 0 W/m2
19:59 31.8 °F /  -0.1 °C 29.3 °F /  -1.5 °C 29.99in /  1015.5hPa Calm     87.2% 0.00in /  0mm 0 W/m2
20:04 31.8 °F /  -0.1 °C 29.5 °F /  -1.4 °C 29.99in /  1015.5hPa NNW 0.6mph /  1km/h 4mph /  6.4km/h 88% 0.00in /  0mm 0 W/m2
20:09 31.8 °F /  -0.1 °C 29.5 °F /  -1.4 °C 29.99in /  1015.5hPa NNW 0.2mph /  0.3km/h 2mph /  3.2km/h 88% 0.00in /  0mm 0 W/m2
20:14 31.8 °F /  -0.1 °C 29.5 °F /  -1.4 °C 29.99in /  1015.5hPa Calm   1mph /  1.6km/h 88% 0.00in /  0mm 0 W/m2
20:19 32 °F /  0 °C 29.7 °F /  -1.3 °C 29.99in /  1015.5hPa Calm     88% 0.00in /  0mm 0 W/m2
20:24 32.2 °F /  0.1 °C 29.8 °F /  -1.2 °C 29.99in /  1015.5hPa Calm     88% 0.00in /  0mm 0 W/m2
20:29 32.2 °F /  0.1 °C 29.8 °F /  -1.2 °C 29.99in /  1015.5hPa Calm     88% 0.00in /  0mm 0 W/m2
20:34 32.1 °F /  0.1 °C 29.8 °F /  -1.2 °C 29.99in /  1015.5hPa Calm     88% 0.00in /  0mm 0 W/m2
20:39 31.8 °F /  -0.1 °C 29.5 °F /  -1.4 °C 29.98in /  1015.1hPa Calm     88% 0.00in /  0mm 0 W/m2
20:44 31.8 °F /  -0.1 °C 29.5 °F /  -1.4 °C 29.98in /  1015.1hPa Calm     88% 0.00in /  0mm 0 W/m2
20:49 31.6 °F /  -0.2 °C 29.2 °F /  -1.6 °C 29.99in /  1015.5hPa Calm     88% 0.00in /  0mm 0 W/m2
20:54 31.5 °F /  -0.3 °C 29.1 °F /  -1.6 °C 29.98in /  1015.1hPa Calm     88% 0.00in /  0mm 0 W/m2
20:59 31.5 °F /  -0.3 °C 29.1 °F /  -1.6 °C 29.98in /  1015.1hPa Calm     88% 0.00in /  0mm 0 W/m2
21:04 31.5 °F /  -0.3 °C 29.1 °F /  -1.6 °C 29.98in /  1015.1hPa Calm     88% 0.00in /  0mm 0 W/m2
21:09 31.5 °F /  -0.3 °C 29.2 °F /  -1.6 °C 29.98in /  1015.1hPa Calm     88% 0.00in /  0mm 0 W/m2
21:14 31.6 °F /  -0.2 °C 29.3 °F /  -1.5 °C 29.98in /  1015.1hPa Calm     88% 0.00in /  0mm 0 W/m2
21:19 31.6 °F /  -0.2 °C 29.3 °F /  -1.5 °C 29.98in /  1015.1hPa Calm     88% 0.00in /  0mm 0 W/m2
21:24 31.7 °F /  -0.2 °C 29.7 °F /  -1.3 °C 29.98in /  1015.1hPa Calm     88.8% 0.00in /  0mm 0 W/m2
21:29 31.8 °F /  -0.1 °C 29.8 °F /  -1.2 °C 29.98in /  1015.1hPa Calm     89% 0.00in /  0mm 0 W/m2
21:34 31.9 °F /  -0.1 °C 29.9 °F /  -1.2 °C 29.97in /  1014.8hPa Calm     89% 0.00in /  0mm 0 W/m2
21:39 32 °F /  0 °C 30 °F /  -1.1 °C 29.98in /  1015.1hPa Calm     89% 0.00in /  0mm 0 W/m2
21:44 32 °F /  0 °C 30 °F /  -1.1 °C 29.98in /  1015.1hPa Calm     89% 0.00in /  0mm 0 W/m2
21:49 32.2 °F /  0.1 °C 30.2 °F /  -1 °C 29.98in /  1015.1hPa Calm     89% 0.00in /  0mm 0 W/m2
21:54 32.2 °F /  0.1 °C 30.2 °F /  -1 °C 29.98in /  1015.1hPa Calm     89% 0.00in /  0mm 0 W/m2
21:59 32.3 °F /  0.2 °C 30.3 °F /  -0.9 °C 29.98in /  1015.1hPa Calm     89% 0.00in /  0mm 0 W/m2
22:04 32.4 °F /  0.2 °C 30.5 °F /  -0.8 °C 29.98in /  1015.1hPa Calm     89% 0.00in /  0mm 0 W/m2
22:09 32.6 °F /  0.3 °C 30.6 °F /  -0.8 °C 29.99in /  1015.5hPa Calm     89% 0.00in /  0mm 0 W/m2
22:14 32.9 °F /  0.5 °C 30.9 °F /  -0.6 °C 29.99in /  1015.5hPa Calm     89% 0.00in /  0mm 0 W/m2
22:19 33.2 °F /  0.7 °C 31.2 °F /  -0.4 °C 29.98in /  1015.1hPa Calm     89% 0.00in /  0mm 0 W/m2
22:24 33.4 °F /  0.8 °C 31.5 °F /  -0.3 °C 29.98in /  1015.1hPa Calm     89% 0.00in /  0mm 0 W/m2
22:29 33.7 °F /  0.9 °C 31.7 °F /  -0.2 °C 29.98in /  1015.1hPa Calm     89% 0.00in /  0mm 0 W/m2
22:34 34 °F /  1.1 °C 32 °F /  0 °C 29.97in /  1014.8hPa Calm     89% 0.00in /  0mm 0 W/m2
22:39 34 °F /  1.1 °C 32 °F /  0 °C 29.97in /  1014.8hPa Calm     89% 0.00in /  0mm 0 W/m2
22:44 34 °F /  1.1 °C 32 °F /  0 °C 29.96in /  1014.4hPa Calm     89% 0.00in /  0mm 0 W/m2
22:49 34.1 °F /  1.2 °C 32.1 °F /  0.1 °C 29.96in /  1014.4hPa Calm     89% 0.00in /  0mm 0 W/m2
22:54 34.2 °F /  1.2 °C 32.1 °F /  0.1 °C 29.96in /  1014.4hPa Calm     88.8% 0.00in /  0mm 0 W/m2
22:59 34.2 °F /  1.2 °C 32.2 °F /  0.1 °C 29.96in /  1014.4hPa Calm     89% 0.00in /  0mm 0 W/m2
23:04 34.2 °F /  1.2 °C 32.1 °F /  0.1 °C 29.96in /  1014.4hPa Calm     88.6% 0.00in /  0mm 0 W/m2
23:09 34.3 °F /  1.3 °C 32 °F /  0 °C 29.96in /  1014.4hPa Calm     88% 0.00in /  0mm 0 W/m2
23:14 34.3 °F /  1.3 °C 32 °F /  0 °C 29.95in /  1014.1hPa Calm     88% 0.00in /  0mm 0 W/m2
23:19 34.4 °F /  1.3 °C 32.1 °F /  0.1 °C 29.95in /  1014.1hPa NNW 0.6mph /  1km/h 3mph /  4.8km/h 88% 0.00in /  0mm 0 W/m2
23:24 34.7 °F /  1.5 °C 32.3 °F /  0.2 °C 29.94in /  1013.8hPa NNW 1.4mph /  2.3km/h 3mph /  4.8km/h 88% 0.00in /  0mm 0 W/m2
23:29 35 °F /  1.7 °C 32.6 °F /  0.3 °C 29.94in /  1013.8hPa NNW 0.8mph /  1.3km/h 3mph /  4.8km/h 88% 0.00in /  0mm 0 W/m2
23:34 35.1 °F /  1.7 °C 32.7 °F /  0.4 °C 29.93in /  1013.4hPa NNW 0.6mph /  1km/h 2mph /  3.2km/h 87.6% 0.00in /  0mm 0 W/m2
23:39 35.4 °F /  1.9 °C 32.9 °F /  0.5 °C 29.93in /  1013.4hPa NNW 0.9mph /  1.4km/h 4mph /  6.4km/h 87% 0.00in /  0mm 0 W/m2
23:44 35.7 °F /  2.1 °C 33.1 °F /  0.6 °C 29.93in /  1013.4hPa Calm   3mph /  4.8km/h 86.8% 0.00in /  0mm 0 W/m2
23:49 35.8 °F /  2.1 °C 33 °F /  0.6 °C 29.93in /  1013.4hPa Calm     86.2% 0.00in /  0mm 0 W/m2
23:54 35.9 °F /  2.2 °C 33 °F /  0.6 °C 29.93in /  1013.4hPa NNW 0.4mph /  0.6km/h 5mph /  8km/h 86% 0.01in /  0.25mm 0 W/m2
23:59 36 °F /  2.2 °C 33.2 °F /  0.7 °C 29.93in /  1013.4hPa NW 3.4mph /  5.5km/h 9mph /  14.5km/h 86% 0.01in /  0.25mm 0 W/m2
Bath Spa Weather
Compliments of Weather Underground - 2 mb